Carbondale, Kentucky
Current Conditions -  °F | °C
As of 1:35 PM on Sunday 21 Dec 2014 (Local Time) from K2I0 Reporting Station
Clear Clear  
Wind Chill: 49°   Ceiling: Unl
Heat Index: 49°   Visibility: 10mi
Dew Point: 32°   Wind: 3mph
Humidity: 52%   Direction: 120°ESE
Pressure: 30.14"   Gusts: NA
Location:  37.196°N, 87.6728°W
Report Text: K2I0 211935Z AUTO 12003KT 10SM CLR 09/00 A3014 RMK AO2 T00921002
Loading
Personal Weather Stations






























Interactive Weather Map New forecast layout! Learn more

10-Day Weather Forecast

Advertisements
Track Severe Weather on mobile